createdAt,value
2023-08-29T00:00:56.917Z,56.77139
2023-08-29T00:05:58.011Z,57.72286
2023-08-29T00:10:59.218Z,57.86679
2023-08-29T00:16:00.529Z,58.13523
2023-08-29T00:21:01.729Z,57.6475
2023-08-29T00:26:03.027Z,57.05237
2023-08-29T00:31:03.980Z,57.7838
2023-08-29T00:36:04.981Z,58.44671
2023-08-29T00:41:05.880Z,59.17036
2023-08-29T00:46:06.852Z,59.12125
2023-08-29T00:51:07.763Z,58.81795
2023-08-29T00:56:08.690Z,58.80477
2023-08-29T01:01:09.697Z,59.79203
2023-08-29T01:06:10.948Z,59.91524
2023-08-29T01:11:12.260Z,59.53158
2023-08-29T01:16:13.259Z,58.49761
2023-08-29T01:21:14.353Z,58.52571
2023-08-29T01:26:15.526Z,59.77119
2023-08-29T01:31:16.568Z,59.62789
2023-08-29T01:36:17.633Z,58.28048
2023-08-29T01:41:18.531Z,57.22823
2023-08-29T01:46:19.517Z,58.85087
2023-08-29T01:51:20.500Z,59.40442
2023-08-29T01:56:21.577Z,59.58813
2023-08-29T02:01:24.099Z,60.08951
2023-08-29T02:06:25.411Z,61.34228
2023-08-29T02:11:26.348Z,61.62136
2023-08-29T02:16:27.377Z,60.9692
2023-08-29T02:21:28.316Z,60.46513
2023-08-29T02:26:29.340Z,61.01832
2023-08-29T02:31:30.288Z,60.67402
2023-08-29T02:36:31.355Z,60.90482
2023-08-29T02:41:32.275Z,60.77875
2023-08-29T02:46:33.332Z,61.24479
2023-08-29T02:51:34.290Z,61.80596
2023-08-29T02:56:35.213Z,61.87172
2023-08-29T03:01:36.265Z,61.98835
2023-08-29T03:06:37.197Z,62.87247
2023-08-29T03:11:38.172Z,64.00309
2023-08-29T03:16:39.146Z,64.90867
2023-08-29T03:21:40.106Z,66.33405
2023-08-29T03:26:41.172Z,67.04339
2023-08-29T03:31:42.100Z,67.29873
2023-08-29T03:36:43.106Z,67.60327
2023-08-29T03:41:44.714Z,67.79812
2023-08-29T03:46:45.715Z,68.18749
2023-08-29T03:51:47.126Z,69.29248
2023-08-29T03:56:48.082Z,69.33049
2023-08-29T04:01:48.986Z,68.65608
2023-08-29T04:06:49.995Z,69.02356
2023-08-29T04:11:50.980Z,69.22845
2023-08-29T04:16:52.016Z,68.34404
2023-08-29T04:21:52.917Z,68.32898
2023-08-29T04:26:54.092Z,68.82078
2023-08-29T04:31:54.997Z,68.62419
2023-08-29T04:36:55.926Z,68.17578
2023-08-29T04:41:56.899Z,67.9584
2023-08-29T04:46:58.276Z,67.49471
2023-08-29T04:51:59.498Z,67.16713
2023-08-29T04:57:00.725Z,67.4126
2023-08-29T05:02:02.032Z,67.46085
2023-08-29T05:07:03.159Z,66.82132
2023-08-29T05:12:04.124Z,66.79711
2023-08-29T05:17:05.042Z,66.99539
2023-08-29T05:22:05.954Z,67.49454
2023-08-29T05:27:06.927Z,67.46132
2023-08-29T05:32:07.891Z,67.91116
2023-08-29T05:37:08.831Z,68.34974
2023-08-29T05:42:09.800Z,67.93132
2023-08-29T05:47:10.824Z,67.99563
2023-08-29T05:52:11.726Z,67.71172
2023-08-29T05:57:12.699Z,66.5912
2023-08-29T06:02:13.630Z,65.88958
2023-08-29T06:07:14.660Z,66.40232
2023-08-29T06:12:15.872Z,66.55254
2023-08-29T06:17:16.772Z,67.58399
2023-08-29T06:22:17.684Z,67.90524
2023-08-29T06:27:18.705Z,67.07666
2023-08-29T06:32:19.584Z,67.45887
2023-08-29T06:37:20.524Z,66.58723
2023-08-29T06:42:21.559Z,65.20644
2023-08-29T06:47:22.514Z,65.29316
2023-08-29T06:52:23.435Z,64.30107
2023-08-29T06:57:24.456Z,62.72962
2023-08-29T07:02:25.378Z,61.9466
2023-08-29T07:07:26.362Z,60.31378
2023-08-29T07:12:27.318Z,59.82537
2023-08-29T07:17:28.379Z,59.20661
2023-08-29T07:22:29.369Z,58.9749
2023-08-29T07:27:30.389Z,58.0934
2023-08-29T07:32:31.388Z,58.70544
2023-08-29T07:37:32.335Z,59.17916
2023-08-29T07:42:33.279Z,59.38483
2023-08-29T07:47:35.494Z,59.58465
2023-08-29T07:52:37.127Z,59.27228
2023-08-29T07:57:39.251Z,59.06662
2023-08-29T08:02:40.355Z,59.05733
2023-08-29T08:07:41.472Z,59.94929
2023-08-29T08:12:42.538Z,59.40966
2023-08-29T08:17:43.778Z,59.31942
2023-08-29T08:22:44.741Z,59.33825
2023-08-29T08:27:45.648Z,59.76341
2023-08-29T08:32:46.589Z,59.37642
2023-08-29T08:37:47.493Z,59.0695
2023-08-29T08:42:48.418Z,59.82861
2023-08-29T08:47:49.316Z,59.85218
2023-08-29T08:52:50.246Z,60.49537
2023-08-29T08:57:51.157Z,60.75406
2023-08-29T09:02:52.291Z,60.55198
2023-08-29T09:07:53.343Z,60.79059
2023-08-29T09:12:54.283Z,61.08621
2023-08-29T09:17:55.286Z,62.25454
2023-08-29T09:22:56.326Z,62.66799
2023-08-29T09:27:57.222Z,63.33268
2023-08-29T09:32:58.398Z,63.01349
2023-08-29T09:37:59.662Z,62.53844
2023-08-29T09:43:00.922Z,61.20367
2023-08-29T09:48:02.495Z,61.44089
2023-08-29T09:53:03.577Z,62.40969
2023-08-29T09:58:05.035Z,62.85845
2023-08-29T10:03:06.246Z,61.36074
2023-08-29T10:08:07.518Z,62.75307
2023-08-29T10:13:08.730Z,64.96622
2023-08-29T10:18:10.166Z,65.10547
2023-08-29T10:23:11.331Z,64.52407
2023-08-29T10:28:12.257Z,64.31568
2023-08-29T10:33:13.269Z,64.31233
2023-08-29T10:38:15.417Z,64.2874
2023-08-29T10:43:16.782Z,64.80261
2023-08-29T10:48:17.698Z,65.20617
2023-08-29T10:53:18.564Z,64.8568
2023-08-29T10:58:19.462Z,64.4415
2023-08-29T11:03:20.403Z,64.32224
2023-08-29T11:08:21.301Z,64.58456
2023-08-29T11:13:22.210Z,65.21591
2023-08-29T11:18:23.170Z,65.49432
2023-08-29T11:23:24.169Z,66.61527
2023-08-29T11:28:25.087Z,67.39061
2023-08-29T11:33:26.045Z,67.72286
2023-08-29T11:38:26.985Z,68.30909
2023-08-29T11:43:57.178Z,68.24043
2023-08-29T11:49:22.037Z,68.43547
2023-08-29T11:54:22.941Z,69.07552
2023-08-29T11:59:23.851Z,68.86445
2023-08-29T12:04:24.748Z,68.91869
2023-08-29T12:09:25.696Z,68.31543
2023-08-29T12:14:26.607Z,68.3736
2023-08-29T12:19:27.626Z,68.11772
2023-08-29T12:24:28.549Z,67.56203
2023-08-29T12:29:29.529Z,67.31421
2023-08-29T12:34:30.501Z,67.23375
2023-08-29T12:39:31.393Z,68.29014
2023-08-29T12:44:32.320Z,68.73167
2023-08-29T12:49:33.227Z,68.47965
2023-08-29T12:54:34.150Z,68.37842
2023-08-29T12:59:35.143Z,67.8967
2023-08-29T13:04:36.079Z,68.09659
2023-08-29T13:09:38.367Z,67.83344
2023-08-29T13:14:40.468Z,68.5737
2023-08-29T13:19:41.573Z,68.92042
2023-08-29T13:24:42.484Z,68.88272
2023-08-29T13:29:43.424Z,67.98127
2023-08-29T13:34:44.371Z,67.54776
2023-08-29T13:39:45.337Z,67.00404
2023-08-29T13:44:46.232Z,67.16512
2023-08-29T13:49:47.211Z,66.55802
2023-08-29T13:54:48.229Z,66.91419
2023-08-29T13:59:49.218Z,66.80442
2023-08-29T14:04:50.143Z,66.89792
2023-08-29T14:09:51.128Z,67.11881
2023-08-29T14:14:52.091Z,66.27949
2023-08-29T14:19:53.052Z,66.04084
2023-08-29T14:24:53.997Z,66.32857
2023-08-29T14:29:54.955Z,66.85419
2023-08-29T14:34:55.892Z,67.64592
2023-08-29T14:39:56.872Z,67.973
2023-08-29T14:44:57.851Z,67.91892
2023-08-29T14:49:58.941Z,67.24947
2023-08-29T14:55:00.179Z,67.05086
2023-08-29T15:00:01.401Z,67.01909
2023-08-29T15:05:02.580Z,67.01977
2023-08-29T15:10:03.826Z,66.99116
2023-08-29T15:15:04.806Z,67.36387
2023-08-29T15:20:05.772Z,67.30806
2023-08-29T15:25:06.683Z,67.05589
2023-08-29T15:30:07.662Z,66.65527
2023-08-29T15:35:08.661Z,66.45143
2023-08-29T15:40:09.641Z,67.11589
2023-08-29T15:45:10.512Z,67.27708
2023-08-29T15:50:11.471Z,67.36479
2023-08-29T15:55:12.374Z,67.31684
2023-08-29T16:00:13.321Z,66.92927
2023-08-29T16:05:14.251Z,66.67049
2023-08-29T16:10:15.261Z,66.79613
2023-08-29T16:15:17.646Z,66.77099
2023-08-29T16:20:18.828Z,66.57751
2023-08-29T16:25:19.747Z,66.52556
2023-08-29T16:30:20.715Z,66.5662
2023-08-29T16:35:21.655Z,66.6755
2023-08-29T16:40:22.616Z,66.37004
2023-08-29T16:45:23.600Z,66.1424
2023-08-29T16:50:24.502Z,65.96074
2023-08-29T16:55:25.433Z,66.71164
2023-08-29T17:00:26.387Z,67.14539
2023-08-29T17:05:27.285Z,67.1397
2023-08-29T17:10:28.193Z,67.37906
2023-08-29T17:15:29.147Z,67.34104
2023-08-29T17:20:30.080Z,68.23311
2023-08-29T17:25:31.033Z,67.89349
2023-08-29T17:30:32.108Z,67.88397
2023-08-29T17:35:33.064Z,67.76202
2023-08-29T17:40:33.975Z,67.29618
2023-08-29T17:45:35.077Z,66.49406
2023-08-29T17:50:36.159Z,66.29753
2023-08-29T17:55:37.095Z,65.96398
2023-08-29T18:00:38.319Z,66.31045
2023-08-29T18:05:39.214Z,65.82505
2023-08-29T18:10:40.210Z,65.30041
2023-08-29T18:15:41.185Z,65.44807
2023-08-29T18:20:42.197Z,65.32916
2023-08-29T18:25:43.193Z,65.06855
2023-08-29T18:30:44.145Z,64.88435
2023-08-29T18:35:45.087Z,63.99731
2023-08-29T18:40:46.038Z,63.67746
2023-08-29T18:45:47.037Z,63.62783
2023-08-29T18:50:48.186Z,62.73612
2023-08-29T18:55:49.096Z,62.92356
2023-08-29T19:00:50.141Z,62.43865
2023-08-29T19:05:51.100Z,62.38689
2023-08-29T19:10:52.038Z,62.29894
2023-08-29T19:15:53.032Z,62.29615
2023-08-29T19:20:54.029Z,61.97641
2023-08-29T19:25:54.972Z,62.1536
2023-08-29T19:30:55.967Z,62.72332
2023-08-29T19:35:57.189Z,62.73937
2023-08-29T19:40:58.217Z,63.38392
2023-08-29T19:45:59.706Z,64.07359
2023-08-29T19:51:00.944Z,64.4747
2023-08-29T19:56:02.391Z,64.40155
2023-08-29T20:01:03.680Z,64.13294
2023-08-29T20:06:04.617Z,64.2319
2023-08-29T20:11:05.505Z,63.82145
2023-08-29T20:16:06.428Z,63.91867
2023-08-29T20:21:07.380Z,63.65106
2023-08-29T20:26:08.347Z,63.75101
2023-08-29T20:31:09.267Z,64.32771
2023-08-29T20:36:10.288Z,64.88127
2023-08-29T20:41:11.285Z,65.35397
2023-08-29T20:46:12.264Z,65.1029
2023-08-29T20:51:13.311Z,65.02016
2023-08-29T20:56:14.218Z,65.71684
2023-08-29T21:01:15.137Z,65.24499
2023-08-29T21:06:16.030Z,65.87824
2023-08-29T21:11:16.959Z,66.348
2023-08-29T21:16:17.962Z,66.56038
2023-08-29T21:21:19.732Z,66.73675
2023-08-29T21:26:20.769Z,67.33362
2023-08-29T21:31:21.741Z,67.57515
2023-08-29T21:36:22.736Z,67.86827
2023-08-29T21:41:23.820Z,67.42965
2023-08-29T21:46:24.786Z,66.957
2023-08-29T21:51:25.758Z,66.56327
2023-08-29T21:56:26.732Z,66.61206
2023-08-29T22:01:27.668Z,67.58408
2023-08-29T22:06:28.571Z,67.95167
2023-08-29T22:11:29.488Z,69.1393
2023-08-29T22:16:30.492Z,68.64235
2023-08-29T22:21:31.434Z,68.78482
2023-08-29T22:26:32.410Z,69.09153
2023-08-29T22:31:33.343Z,68.54068
2023-08-29T22:36:34.324Z,68.39636
2023-08-29T22:41:35.286Z,68.88027
2023-08-29T22:46:36.204Z,69.14787
2023-08-29T22:51:37.105Z,69.18741
2023-08-29T22:56:38.094Z,69.94668
2023-08-29T23:01:39.066Z,69.57127
2023-08-29T23:06:40.056Z,69.4375
2023-08-29T23:11:41.237Z,69.71178
2023-08-29T23:16:42.187Z,69.15825
2023-08-29T23:21:43.072Z,68.9832
2023-08-29T23:26:44.053Z,70.09476
2023-08-29T23:31:44.986Z,70.66915
2023-08-29T23:36:46.417Z,70.86451
2023-08-29T23:41:47.368Z,71.97389
2023-08-29T23:46:48.339Z,72.45822
2023-08-29T23:51:49.257Z,72.89769
2023-08-29T23:56:50.561Z,73.8165
